Time;durP1;ratioP1;P1;durP2;ratioP2;P2;SDS_P1;SDS_P2;PMS_P1;PMS_P2;Temp;Humidity;BMP_temperature;BMP_pressure;BME280_temperature;BME280_humidity;BME280_pressure;Samples;Min_cycle;Max_cycle;Signal;HPM_P1;HPM_P2
2023/02/03 00:01:03;;;;;;;8.35;3.47;;;8.00;99.90;;;;;;5017049;28;20028;-48
2023/02/03 00:03:28;;;;;;;6.93;3.47;;;8.00;99.90;;;;;;5034584;28;20025;-47
2023/02/03 00:05:54;;;;;;;15.30;3.60;;;7.90;99.90;;;;;;5034800;28;20029;-49
2023/02/03 00:08:20;;;;;;;6.07;2.90;;;8.00;99.90;;;;;;5016613;28;20390;-49
2023/02/03 00:10:46;;;;;;;4.00;2.50;;;8.00;99.90;;;;;;5017138;28;20028;-49
2023/02/03 00:13:12;;;;;;;7.25;2.78;;;8.00;99.90;;;;;;5034580;28;20112;-51
2023/02/03 00:15:38;;;;;;;8.50;2.90;;;8.00;99.90;;;;;;5034844;28;20053;-47
2023/02/03 00:18:03;;;;;;;8.50;3.85;;;8.10;99.90;;;;;;5035323;28;20064;-47
2023/02/03 00:20:29;;;;;;;9.88;3.10;;;8.10;99.90;;;;;;5018744;28;20018;-47
2023/02/03 00:23:05;;;;;;;5.93;2.63;;;8.10;99.90;;;;;;5035470;28;20033;-47
2023/02/03 00:25:31;;;;;;;6.53;2.92;;;8.10;99.90;;;;;;5034555;28;20026;-47
2023/02/03 00:27:56;;;;;;;5.78;3.05;;;8.10;99.90;;;;;;5034611;28;20527;-49
2023/02/03 00:30:22;;;;;;;8.35;3.85;;;8.00;99.90;;;;;;5016904;28;20025;-47
2023/02/03 00:32:47;;;;;;;5.13;2.83;;;8.00;99.90;;;;;;5016623;28;20087;-47
2023/02/03 00:35:13;;;;;;;12.82;3.90;;;8.00;99.90;;;;;;5016666;28;20025;-47
2023/02/03 00:37:38;;;;;;;5.78;2.80;;;8.10;99.90;;;;;;5033942;28;20472;-48
2023/02/03 00:40:04;;;;;;;7.78;3.13;;;8.10;99.90;;;;;;5015225;28;20137;-47
2023/02/03 00:42:30;;;;;;;7.07;2.97;;;8.00;99.90;;;;;;5033657;28;20062;-47
2023/02/03 00:44:55;;;;;;;5.65;2.47;;;8.10;99.90;;;;;;5033765;28;20400;-47
2023/02/03 00:47:21;;;;;;;6.63;2.75;;;8.10;99.90;;;;;;5015997;28;20484;-50
2023/02/03 00:49:47;;;;;;;3.85;2.58;;;8.10;99.90;;;;;;5015945;28;20032;-47
2023/02/03 00:52:12;;;;;;;6.10;2.13;;;8.10;99.90;;;;;;5034167;28;20025;-50
2023/02/03 00:54:38;;;;;;;5.78;3.15;;;8.10;99.90;;;;;;5033832;28;20030;-48
2023/02/03 00:57:03;;;;;;;3.83;2.38;;;8.20;99.90;;;;;;5015680;28;20028;-49
2023/02/03 00:59:29;;;;;;;4.30;2.35;;;8.10;99.90;;;;;;5033613;28;20469;-46
2023/02/03 01:01:54;;;;;;;3.58;2.10;;;8.20;99.90;;;;;;5015791;28;20026;-48
2023/02/03 01:04:20;;;;;;;8.68;2.33;;;8.20;99.90;;;;;;5033900;28;20032;-49
2023/02/03 01:06:45;;;;;;;7.03;3.45;;;8.20;99.90;;;;;;5034007;28;20029;-44
2023/02/03 01:09:11;;;;;;;5.95;2.20;;;8.10;99.90;;;;;;5033546;28;20104;-49
2023/02/03 01:11:37;;;;;;;3.50;2.33;;;8.10;99.90;;;;;;5033806;28;20021;-47
2023/02/03 01:14:03;;;;;;;4.63;2.03;;;8.10;99.90;;;;;;5033544;28;20025;-47
2023/02/03 01:16:30;;;;;;;3.22;2.33;;;8.10;99.90;;;;;;5033427;28;20026;-49
2023/02/03 01:18:56;;;;;;;4.75;1.77;;;8.10;99.90;;;;;;5033945;28;20052;-48
2023/02/03 01:21:24;;;;;;;2.38;2.03;;;8.10;99.90;;;;;;5033040;28;20025;-48
2023/02/03 01:23:51;;;;;;;5.05;1.98;;;8.10;99.90;;;;;;5015380;28;20025;-47
2023/02/03 01:26:20;;;;;;;3.47;2.00;;;8.10;99.90;;;;;;5033190;28;20033;-52
2023/02/03 01:28:54;;;;;;;3.67;2.10;;;8.10;99.90;;;;;;5015228;28;20025;-49
2023/02/03 01:31:23;;;;;;;4.22;1.98;;;8.20;99.90;;;;;;5032927;28;20095;-47
2023/02/03 01:33:51;;;;;;;4.80;2.10;;;8.20;99.90;;;;;;5032513;28;20033;-53
2023/02/03 01:36:17;;;;;;;3.03;1.95;;;8.20;99.90;;;;;;5032877;28;20025;-48
2023/02/03 01:38:44;;;;;;;3.88;2.10;;;8.20;99.90;;;;;;5032898;28;20074;-48
2023/02/03 01:41:12;;;;;;;2.95;2.15;;;8.20;99.90;;;;;;5014882;28;20029;-49
2023/02/03 01:43:45;;;;;;;3.38;1.88;;;8.20;99.90;;;;;;5014606;28;20021;-47
2023/02/03 01:46:34;;;;;;;2.83;1.52;;;8.20;99.90;;;;;;5032558;28;20511;-47
2023/02/03 01:49:04;;;;;;;5.28;1.88;;;8.20;99.90;;;;;;5014944;28;20029;-47
2023/02/03 01:51:30;;;;;;;2.70;1.92;;;8.30;99.90;;;;;;5031900;28;20041;-48
2023/02/03 01:53:56;;;;;;;2.45;1.77;;;8.30;99.90;;;;;;5014507;28;20064;-52
2023/02/03 01:56:23;;;;;;;3.92;1.90;;;8.30;99.90;;;;;;5032293;28;20018;-49
2023/02/03 01:58:50;;;;;;;4.03;2.08;;;8.30;99.90;;;;;;5032215;28;20052;-47
2023/02/03 02:01:15;;;;;;;4.70;2.40;;;8.30;99.90;;;;;;5032259;28;20037;-49
2023/02/03 02:03:50;;;;;;;3.50;2.17;;;8.30;99.90;;;;;;5032100;28;20213;-49
2023/02/03 02:06:15;;;;;;;2.45;1.60;;;8.30;99.90;;;;;;5032231;28;20021;-45
2023/02/03 02:08:45;;;;;;;4.88;2.00;;;8.30;99.90;;;;;;5032389;28;20037;-47
2023/02/03 02:11:11;;;;;;;3.03;1.67;;;8.40;99.90;;;;;;5031990;28;20030;-46
2023/02/03 02:13:36;;;;;;;1.92;1.48;;;8.40;99.90;;;;;;5031787;28;20500;-47
2023/02/03 02:16:16;;;;;;;6.40;1.70;;;8.40;99.90;;;;;;5031979;28;20148;-50
2023/02/03 02:19:14;;;;;;;3.97;1.95;;;8.40;99.90;;;;;;5032025;28;20025;-47
2023/02/03 02:22:04;;;;;;;4.65;1.70;;;8.30;99.90;;;;;;4993771;28;20123;-48
2023/02/03 02:24:38;;;;;;;3.38;1.70;;;8.30;99.90;;;;;;5031803;28;20021;-50
2023/02/03 02:27:35;;;;;;;2.72;1.52;;;8.30;99.90;;;;;;5031905;28;20481;-49
2023/02/03 02:30:24;;;;;;;;;;;8.30;99.90;;;;;;5032158;28;20036;-48
2023/02/03 02:33:01;;;;;;;1.83;1.60;;;8.40;99.90;;;;;;5031901;28;19912;-47
2023/02/03 02:35:29;;;;;;;2.45;1.65;;;8.30;99.90;;;;;;5014098;28;20025;-48
2023/02/03 02:38:03;;;;;;;2.20;1.60;;;8.40;99.90;;;;;;5032017;28;20083;-50
2023/02/03 02:40:40;;;;;;;2.28;1.45;;;8.40;99.90;;;;;;5031664;28;20090;-49
2023/02/03 02:43:19;;;;;;;2.92;1.27;;;8.40;99.90;;;;;;5031517;28;20053;-47
2023/02/03 02:45:49;;;;;;;2.50;1.77;;;8.40;99.90;;;;;;5031641;28;20025;-47
2023/02/03 02:48:39;;;;;;;1.48;1.23;;;8.40;99.90;;;;;;5031716;28;20021;-48
2023/02/03 02:51:07;;;;;;;2.83;1.20;;;8.40;99.90;;;;;;5013771;28;20035;-50
2023/02/03 02:53:39;;;;;;;2.05;1.33;;;8.50;99.90;;;;;;5031295;28;20112;-49
2023/02/03 02:56:07;;;;;;;2.92;1.10;;;8.50;99.90;;;;;;5031459;28;20032;-49
2023/02/03 02:58:36;;;;;;;1.45;1.42;;;8.40;99.90;;;;;;5031593;28;20022;-49
2023/02/03 03:01:02;;;;;;;1.70;1.60;;;8.40;99.90;;;;;;5013817;28;20404;-49
2023/02/03 03:03:28;;;;;;;1.40;1.30;;;8.40;99.90;;;;;;5030870;28;20047;-52
2023/02/03 03:06:05;;;;;;;1.75;1.30;;;8.40;99.90;;;;;;5013781;28;20088;-49
2023/02/03 03:08:52;;;;;;;1.48;1.38;;;8.40;99.90;;;;;;5031772;28;20139;-48
2023/02/03 03:11:18;;;;;;;2.55;1.30;;;8.40;99.90;;;;;;5032258;28;20033;-47
2023/02/03 03:13:54;;;;;;;2.88;1.80;;;8.40;99.90;;;;;;5031870;28;20026;-47
2023/02/03 03:16:23;;;;;;;1.67;1.52;;;8.40;99.90;;;;;;5032220;28;20361;-48
2023/02/03 03:18:56;;;;;;;4.05;1.63;;;8.40;99.90;;;;;;5032213;28;20028;-49
2023/02/03 03:21:28;;;;;;;3.97;1.67;;;8.40;99.90;;;;;;5032338;28;20481;-47
2023/02/03 03:23:58;;;;;;;1.50;1.35;;;8.30;99.90;;;;;;5032128;28;20112;-47
2023/02/03 03:26:32;;;;;;;2.17;1.40;;;8.30;99.90;;;;;;5031566;28;20048;-47
2023/02/03 03:29:34;;;;;;;1.50;1.40;;;8.30;99.90;;;;;;5031744;28;20025;-52
2023/02/03 03:32:00;;;;;;;2.10;1.08;;;8.30;99.90;;;;;;5011388;28;20404;-50
2023/02/03 03:34:27;;;;;;;1.73;1.15;;;8.30;99.90;;;;;;5031367;28;20032;-48
2023/02/03 03:36:59;;;;;;;0.95;0.95;;;8.30;99.90;;;;;;5031503;28;20030;-52
2023/02/03 03:39:44;;;;;;;3.35;1.30;;;8.30;99.90;;;;;;5013509;28;20018;-49
2023/02/03 03:42:41;;;;;;;2.40;1.23;;;8.30;99.90;;;;;;5031136;28;20032;-50
2023/02/03 03:45:16;;;;;;;1.80;1.33;;;8.30;99.90;;;;;;4984849;28;20385;-49
2023/02/03 03:47:57;;;;;;;;;;;8.30;99.90;;;;;;5013780;28;20027;-48
2023/02/03 03:50:31;;;;;;;1.63;1.52;;;8.20;99.90;;;;;;5030913;28;19913;-46
2023/02/03 03:52:59;;;;;;;2.90;1.50;;;8.20;99.90;;;;;;5030757;28;20036;-48
2023/02/03 03:55:27;;;;;;;3.10;1.20;;;8.20;99.90;;;;;;5030978;28;20076;-50
2023/02/03 03:58:10;;;;;;;0.77;0.77;;;8.20;99.90;;;;;;5030919;28;20032;-45
2023/02/03 04:00:39;;;;;;;1.60;1.08;;;8.30;99.90;;;;;;5030915;28;20034;-46
2023/02/03 04:03:11;;;;;;;2.85;0.82;;;8.20;99.90;;;;;;5012978;28;20021;-48
2023/02/03 04:05:38;;;;;;;0.80;0.80;;;8.20;99.90;;;;;;5031556;28;20037;-48
2023/02/03 04:08:03;;;;;;;0.93;0.90;;;8.30;99.90;;;;;;5031207;28;20018;-47
2023/02/03 04:10:34;;;;;;;2.83;1.10;;;8.20;99.90;;;;;;5030758;28;20017;-49
2023/02/03 04:13:00;;;;;;;1.65;1.00;;;8.20;99.90;;;;;;5030507;28;20388;-47
2023/02/03 04:15:26;;;;;;;1.33;0.98;;;8.20;99.90;;;;;;5032671;28;20101;-48
2023/02/03 04:17:53;;;;;;;1.05;1.00;;;8.20;99.90;;;;;;5016772;28;20120;-50
2023/02/03 04:20:19;;;;;;;2.25;0.90;;;8.20;99.90;;;;;;5034300;28;20041;-52
2023/02/03 04:22:45;;;;;;;1.50;1.00;;;8.20;99.90;;;;;;5016143;28;20502;-52
2023/02/03 04:25:11;;;;;;;0.82;0.82;;;8.30;99.90;;;;;;5034309;28;20022;-46
2023/02/03 04:27:36;;;;;;;3.40;1.02;;;8.30;99.90;;;;;;5034102;28;20038;-47
2023/02/03 04:30:02;;;;;;;1.70;0.90;;;8.30;99.90;;;;;;5016612;28;20032;-47
2023/02/03 04:32:29;;;;;;;1.17;1.13;;;8.30;99.90;;;;;;5034167;28;20026;-50
2023/02/03 04:34:56;;;;;;;1.92;0.95;;;8.30;99.90;;;;;;5016383;28;20026;-46
2023/02/03 04:37:21;;;;;;;2.25;0.95;;;8.30;99.90;;;;;;5033803;28;20111;-47
2023/02/03 04:39:50;;;;;;;1.13;1.00;;;8.40;99.90;;;;;;5033833;28;20022;-47
2023/02/03 04:42:16;;;;;;;2.35;1.42;;;8.40;99.90;;;;;;5033718;28;20022;-47
2023/02/03 04:44:42;;;;;;;1.00;1.00;;;8.40;99.90;;;;;;5033675;28;20025;-48
2023/02/03 04:47:07;;;;;;;2.15;1.75;;;8.40;99.90;;;;;;5033900;28;20108;-47
2023/02/03 04:49:33;;;;;;;1.00;0.95;;;8.40;99.90;;;;;;5033613;28;20104;-47
2023/02/03 04:51:58;;;;;;;1.95;1.13;;;8.40;99.90;;;;;;5034475;28;20515;-47
2023/02/03 04:54:24;;;;;;;1.00;1.00;;;8.40;99.90;;;;;;5015802;28;20025;-53
2023/02/03 04:56:49;;;;;;;1.40;1.30;;;8.40;99.90;;;;;;5033739;28;20053;-47
2023/02/03 04:59:15;;;;;;;1.40;1.27;;;8.40;99.90;;;;;;5033596;28;20037;-49
2023/02/03 05:01:40;;;;;;;1.80;1.58;;;8.40;99.90;;;;;;5033555;28;20025;-51
2023/02/03 05:04:06;;;;;;;3.10;1.90;;;8.40;99.90;;;;;;5033268;28;20029;-47
2023/02/03 05:06:32;;;;;;;1.67;1.33;;;8.40;99.90;;;;;;5033308;28;20039;-48
2023/02/03 05:08:58;;;;;;;1.77;1.20;;;8.40;99.90;;;;;;5033351;28;20034;-50
2023/02/03 05:11:24;;;;;;;1.95;1.30;;;8.40;99.90;;;;;;5033453;28;20037;-48
2023/02/03 05:13:50;;;;;;;1.75;1.60;;;8.40;99.90;;;;;;5033072;28;20064;-47
2023/02/03 05:16:16;;;;;;;1.80;1.60;;;8.40;99.90;;;;;;5033342;28;20053;-46
2023/02/03 05:18:41;;;;;;;4.40;2.28;;;8.40;99.90;;;;;;5033152;28;20018;-50
2023/02/03 05:21:07;;;;;;;3.10;1.73;;;8.40;99.90;;;;;;5033466;28;20049;-50
2023/02/03 05:23:32;;;;;;;1.75;1.63;;;8.40;99.90;;;;;;5032921;28;20033;-47
2023/02/03 05:25:58;;;;;;;1.50;1.40;;;8.40;99.90;;;;;;5014982;28;20033;-47
2023/02/03 05:28:24;;;;;;;3.40;1.52;;;8.40;99.90;;;;;;5015299;28;20029;-47
2023/02/03 05:30:49;;;;;;;4.78;1.50;;;8.40;99.90;;;;;;5032988;28;20115;-47
2023/02/03 05:33:15;;;;;;;1.58;1.48;;;8.40;99.90;;;;;;5032871;28;20213;-47
2023/02/03 05:35:40;;;;;;;1.98;1.75;;;8.40;99.90;;;;;;5033035;28;20026;-48
2023/02/03 05:38:06;;;;;;;7.25;1.80;;;8.40;99.90;;;;;;5033114;28;20026;-51
2023/02/03 05:43:16;;;;;;;3.72;1.73;;;8.70;99.90;;;;;;5032861;28;20051;-49
2023/02/03 05:45:42;;;;;;;3.28;1.95;;;8.30;99.90;;;;;;5032805;28;20077;-50
2023/02/03 05:48:08;;;;;;;3.28;1.83;;;8.30;99.90;;;;;;5033195;28;20552;-45
2023/02/03 05:50:34;;;;;;;3.13;1.90;;;8.20;99.90;;;;;;5051896;23;20045;-49
2023/02/03 05:53:00;;;;;;;6.43;1.80;;;8.20;99.90;;;;;;5051930;28;20028;-48
2023/02/03 05:55:27;;;;;;;2.78;2.22;;;8.20;99.90;;;;;;5052434;28;20091;-47
2023/02/03 05:57:53;;;;;;;5.25;1.50;;;8.20;99.90;;;;;;5052314;28;20036;-47
2023/02/03 06:00:20;;;;;;;4.88;2.70;;;8.20;99.90;;;;;;5052198;28;20013;-49
2023/02/03 06:03:01;;;;;;;2.35;1.55;;;8.20;99.90;;;;;;5052242;28;20078;-45
2023/02/03 06:05:27;;;;;;;3.85;1.60;;;8.20;99.90;;;;;;5052207;28;20017;-44
2023/02/03 06:07:53;;;;;;;1.58;1.35;;;8.30;99.90;;;;;;5052226;28;20033;-46
2023/02/03 06:10:19;;;;;;;3.20;1.60;;;8.30;99.90;;;;;;5034140;28;20079;-45
2023/02/03 06:12:45;;;;;;;2.33;1.90;;;8.30;99.90;;;;;;5051796;28;20109;-45
2023/02/03 06:15:11;;;;;;;3.38;2.17;;;8.30;99.90;;;;;;5052071;28;20386;-48
2023/02/03 06:17:36;;;;;;;1.20;1.20;;;8.30;99.90;;;;;;5051849;28;20033;-45
2023/02/03 06:20:07;;;;;;;2.35;1.50;;;8.30;99.90;;;;;;5051981;28;20440;-46
2023/02/03 06:22:32;;;;;;;1.77;1.40;;;8.30;99.90;;;;;;5033783;28;20028;-44
2023/02/03 06:24:58;;;;;;;2.10;1.63;;;8.30;99.90;;;;;;5033957;28;20025;-46
2023/02/03 06:27:23;;;;;;;2.67;1.88;;;8.30;99.90;;;;;;5051671;28;20027;-47
2023/02/03 06:29:49;;;;;;;3.80;2.17;;;8.20;99.90;;;;;;5052053;28;20488;-45
2023/02/03 06:32:15;;;;;;;5.50;2.75;;;8.30;99.90;;;;;;5051743;28;20044;-45
2023/02/03 06:34:40;;;;;;;2.00;1.85;;;8.30;99.90;;;;;;5051990;28;20029;-42
2023/02/03 06:37:06;;;;;;;2.17;1.60;;;8.30;99.90;;;;;;5052089;28;20401;-46
2023/02/03 06:39:31;;;;;;;3.90;1.90;;;8.30;99.90;;;;;;5052152;28;20079;-46
2023/02/03 06:41:57;;;;;;;3.30;1.67;;;8.30;99.90;;;;;;5052062;28;20109;-45
2023/02/03 06:44:22;;;;;;;1.55;1.55;;;8.40;99.90;;;;;;5051296;28;20025;-47
2023/02/03 06:46:49;;;;;;;3.03;1.90;;;8.30;99.90;;;;;;5051517;28;20025;-46
2023/02/03 06:49:16;;;;;;;2.20;2.00;;;8.30;99.90;;;;;;5051397;28;20032;-44
2023/02/03 06:51:41;;;;;;;4.10;2.22;;;8.30;99.90;;;;;;5051450;28;20119;-49
2023/02/03 06:54:07;;;;;;;1.92;1.73;;;8.30;99.90;;;;;;5051247;28;20071;-49
2023/02/03 06:56:33;;;;;;;1.63;1.52;;;8.30;99.90;;;;;;5051198;28;20021;-47
2023/02/03 06:58:58;;;;;;;3.10;1.75;;;8.30;99.90;;;;;;5051262;28;20031;-48
2023/02/03 07:01:24;;;;;;;2.65;1.92;;;8.40;99.90;;;;;;5051410;28;20048;-50
2023/02/03 07:03:50;;;;;;;1.73;1.63;;;8.40;99.90;;;;;;5051001;28;20485;-49
2023/02/03 07:06:16;;;;;;;4.35;1.70;;;8.40;99.90;;;;;;5051327;28;20040;-48
2023/02/03 07:08:41;;;;;;;4.32;1.73;;;8.40;99.90;;;;;;5051285;28;20028;-51
2023/02/03 07:11:07;;;;;;;1.60;1.50;;;8.50;99.90;;;;;;5051275;28;20132;-50
2023/02/03 07:13:33;;;;;;;3.17;1.42;;;8.50;99.90;;;;;;5032902;28;20032;-45
2023/02/03 07:15:58;;;;;;;3.13;1.70;;;8.50;99.90;;;;;;5051279;28;20495;-47
2023/02/03 07:18:25;;;;;;;2.53;1.52;;;8.50;99.90;;;;;;5051184;28;20099;-49
2023/02/03 07:20:51;;;;;;;3.28;1.67;;;8.50;99.90;;;;;;5033172;28;20035;-46
2023/02/03 07:23:17;;;;;;;4.45;1.92;;;8.50;99.90;;;;;;5032789;28;20028;-48
2023/02/03 07:25:43;;;;;;;4.82;1.67;;;8.50;99.90;;;;;;5051060;28;20025;-47
2023/02/03 07:28:08;;;;;;;1.65;1.55;;;8.50;99.90;;;;;;5032974;28;20387;-46
2023/02/03 07:30:34;;;;;;;3.80;1.40;;;8.50;99.90;;;;;;5050975;28;20559;-50
2023/02/03 07:33:00;;;;;;;3.38;1.50;;;8.50;99.90;;;;;;5050730;28;20036;-50
2023/02/03 07:35:26;;;;;;;2.15;1.63;;;8.50;99.90;;;;;;5051134;28;20067;-49
2023/02/03 07:37:52;;;;;;;4.32;1.58;;;8.50;99.90;;;;;;5051021;28;20468;-49
2023/02/03 07:40:18;;;;;;;1.85;1.60;;;8.50;99.90;;;;;;5051146;28;20025;-49
2023/02/03 07:42:46;;;;;;;2.25;1.60;;;8.50;99.90;;;;;;5050749;28;20097;-46
2023/02/03 07:45:13;;;;;;;1.30;1.20;;;8.50;99.90;;;;;;5051028;28;20029;-45
2023/02/03 07:47:39;;;;;;;2.28;1.77;;;8.50;99.90;;;;;;5050857;28;20056;-45
2023/02/03 07:50:05;;;;;;;1.25;1.17;;;8.60;99.90;;;;;;5052232;28;20032;-46
2023/02/03 07:52:31;;;;;;;3.10;1.63;;;8.60;99.90;;;;;;5054420;28;20033;-45
2023/02/03 07:54:57;;;;;;;1.95;1.33;;;8.60;99.90;;;;;;5054476;28;20021;-50
2023/02/03 07:57:22;;;;;;;2.95;1.33;;;8.60;99.90;;;;;;5036743;28;20040;-47
2023/02/03 07:59:47;;;;;;;2.50;1.40;;;8.70;99.90;;;;;;5054564;28;20405;-46
2023/02/03 08:02:13;;;;;;;3.97;1.30;;;8.60;99.90;;;;;;5054279;28;20029;-48
2023/02/03 08:04:38;;;;;;;2.10;1.55;;;8.60;99.90;;;;;;5054421;28;20025;-46
2023/02/03 08:07:04;;;;;;;1.88;1.77;;;8.70;99.90;;;;;;5054885;28;20033;-48
2023/02/03 08:09:30;;;;;;;1.48;1.33;;;8.70;99.90;;;;;;5054773;28;20400;-47
2023/02/03 08:11:55;;;;;;;1.75;1.35;;;8.70;99.90;;;;;;5032282;28;20052;-47
2023/02/03 08:14:21;;;;;;;3.22;1.40;;;8.70;99.90;;;;;;5053571;28;20472;-52
2023/02/03 08:16:46;;;;;;;2.83;1.40;;;8.70;99.90;;;;;;5049785;28;20073;-53
2023/02/03 08:19:12;;;;;;;1.45;1.35;;;8.80;99.90;;;;;;5060010;28;20032;-49
2023/02/03 08:21:37;;;;;;;1.50;1.40;;;8.80;99.90;;;;;;5073061;28;20020;-55
2023/02/03 08:24:03;;;;;;;3.10;1.10;;;8.80;99.90;;;;;;5072323;28;20082;-56
2023/02/03 08:26:29;;;;;;;3.45;1.80;;;8.80;99.90;;;;;;5063027;28;20036;-46
2023/02/03 08:28:54;;;;;;;3.17;1.83;;;8.90;99.90;;;;;;5052046;28;20361;-50
2023/02/03 08:31:20;;;;;;;1.55;1.40;;;8.90;99.90;;;;;;5035930;28;20158;-45
2023/02/03 08:33:45;;;;;;;2.53;1.50;;;8.90;99.90;;;;;;5053599;28;20141;-45
2023/02/03 08:36:11;;;;;;;1.65;1.20;;;8.90;99.90;;;;;;5053660;28;20485;-45
2023/02/03 08:38:38;;;;;;;1.90;1.10;;;8.90;99.90;;;;;;5053801;28;20062;-45
2023/02/03 08:41:11;;;;;;;2.80;1.33;;;9.20;99.90;;;;;;5053636;28;20056;-49
2023/02/03 08:43:38;;;;;;;1.77;0.95;;;8.90;99.90;;;;;;5053444;28;20090;-45
2023/02/03 08:46:05;;;;;;;1.33;1.23;;;9.00;99.90;;;;;;5053941;28;20025;-49
2023/02/03 08:48:31;;;;;;;3.53;1.25;;;9.00;99.90;;;;;;5053661;28;20029;-46
2023/02/03 08:50:56;;;;;;;4.88;1.15;;;9.00;99.90;;;;;;5053198;28;20570;-46
2023/02/03 08:53:22;;;;;;;0.90;0.90;;;9.00;99.90;;;;;;5050314;28;20036;-47
2023/02/03 08:55:47;;;;;;;1.20;1.10;;;9.00;99.90;;;;;;5053735;28;20036;-46
2023/02/03 08:58:13;;;;;;;3.85;1.13;;;9.00;99.90;;;;;;5053649;28;20041;-45
2023/02/03 09:00:40;;;;;;;2.63;1.10;;;9.10;99.90;;;;;;5053042;28;20550;-46
2023/02/03 09:03:05;;;;;;;1.17;1.00;;;9.10;99.90;;;;;;5052794;28;20106;-45
2023/02/03 09:05:31;;;;;;;2.25;1.38;;;9.10;99.90;;;;;;5053585;28;20053;-46
2023/02/03 09:07:56;;;;;;;2.47;1.13;;;9.20;99.90;;;;;;5053399;28;20033;-47
2023/02/03 09:10:22;;;;;;;3.10;1.38;;;9.20;99.90;;;;;;5053195;28;20044;-48
2023/02/03 09:12:47;;;;;;;2.53;1.20;;;9.10;99.90;;;;;;5053115;28;20033;-51
2023/02/03 09:15:13;;;;;;;4.10;1.50;;;9.20;99.90;;;;;;5053255;28;20025;-44
2023/02/03 09:17:38;;;;;;;1.48;1.38;;;9.20;99.90;;;;;;5053410;28;20033;-44
2023/02/03 09:20:04;;;;;;;0.77;0.77;;;9.20;99.90;;;;;;5053197;28;20524;-44
2023/02/03 09:22:30;;;;;;;1.20;1.10;;;9.30;99.90;;;;;;5052887;28;20094;-43
2023/02/03 09:24:55;;;;;;;5.50;1.00;;;9.20;99.90;;;;;;5034582;28;20468;-44
2023/02/03 09:27:21;;;;;;;1.75;1.00;;;9.30;99.90;;;;;;5053162;28;20025;-41
2023/02/03 09:29:46;;;;;;;1.98;1.50;;;9.30;99.90;;;;;;5053166;28;20032;-41
2023/02/03 09:32:12;;;;;;;4.35;1.60;;;9.30;99.90;;;;;;5053200;28;20112;-47
2023/02/03 09:34:40;;;;;;;3.42;1.08;;;9.30;99.90;;;;;;5052907;28;20035;-47
2023/02/03 09:37:06;;;;;;;0.85;0.80;;;9.40;99.90;;;;;;5052088;28;20037;-43
2023/02/03 09:39:31;;;;;;;0.95;0.90;;;9.40;99.90;;;;;;5052587;28;20036;-48
2023/02/03 09:42:18;;;;;;;2.17;1.17;;;9.40;99.90;;;;;;5052534;28;20369;-45
2023/02/03 09:44:57;;;;;;;2.30;1.10;;;9.40;99.90;;;;;;5052679;28;20021;-45
2023/02/03 09:47:27;;;;;;;3.53;1.00;;;9.50;99.90;;;;;;5052519;28;20024;-46
2023/02/03 09:49:57;;;;;;;1.80;0.77;;;9.50;99.90;;;;;;5052397;28;20102;-41
2023/02/03 09:52:26;;;;;;;2.42;1.10;;;9.50;99.90;;;;;;5071736;28;20035;-43
2023/02/03 09:55:00;;;;;;;1.38;1.05;;;9.60;99.90;;;;;;5072986;28;20552;-43
2023/02/03 09:57:29;;;;;;;0.80;0.80;;;9.60;99.90;;;;;;5042781;28;20091;-44
2023/02/03 10:00:02;;;;;;;2.40;1.02;;;9.90;99.90;;;;;;5044037;28;20028;-44
2023/02/03 10:02:59;;;;;;;4.28;1.17;;;9.60;99.90;;;;;;5042454;28;20013;-46
2023/02/03 10:05:45;;;;;;;2.42;0.90;;;9.60;99.90;;;;;;5052120;28;20515;-51
2023/02/03 10:08:34;;;;;;;2.63;1.13;;;9.60;99.90;;;;;;5032510;28;20452;-51
2023/02/03 10:11:09;;;;;;;3.83;1.05;;;9.60;99.90;;;;;;5053993;28;20025;-44
2023/02/03 10:13:37;;;;;;;0.80;0.80;;;9.60;99.90;;;;;;5031480;28;20034;-45
2023/02/03 10:16:07;;;;;;;1.98;0.73;;;9.70;99.90;;;;;;5031072;28;20140;-46
2023/02/03 10:18:39;;;;;;;1.30;1.10;;;9.70;99.90;;;;;;5044920;28;20025;-44
2023/02/03 10:21:30;;;;;;;4.22;1.38;;;9.70;99.90;;;;;;5051943;28;20032;-50
2023/02/03 10:23:58;;;;;;;1.65;1.15;;;9.70;99.90;;;;;;5047048;28;20021;-46
2023/02/03 10:26:27;;;;;;;3.13;1.02;;;9.60;99.90;;;;;;5051510;28;20108;-47
2023/02/03 10:29:00;;;;;;;1.95;0.80;;;9.70;99.90;;;;;;5044610;28;20394;-47
2023/02/03 10:31:29;;;;;;;1.52;1.10;;;9.60;99.90;;;;;;5033451;28;20026;-47
2023/02/03 10:34:11;;;;;;;3.15;0.82;;;9.60;99.90;;;;;;5045608;28;20079;-48
2023/02/03 10:36:56;;;;;;;6.65;1.25;;;9.70;99.90;;;;;;5013749;28;20121;-44
2023/02/03 10:39:38;;;;;;;2.53;0.90;;;9.70;99.90;;;;;;5036373;28;20018;-45
2023/02/03 10:42:05;;;;;;;2.60;1.00;;;9.70;99.90;;;;;;5031775;28;20268;-43
2023/02/03 10:44:43;;;;;;;2.28;1.38;;;9.80;99.90;;;;;;5013901;28;20079;-48
2023/02/03 10:47:40;;;;;;;0.80;0.80;;;9.80;99.90;;;;;;5013755;28;20029;-48
2023/02/03 10:50:13;;;;;;;;;;;9.70;99.90;;;;;;5034698;28;20026;-49
2023/02/03 10:52:38;;;;;;;2.58;0.95;;;9.80;99.90;;;;;;5034188;28;20276;-44
2023/02/03 10:55:29;;;;;;;1.95;1.05;;;9.80;99.90;;;;;;5051707;28;20086;-44
2023/02/03 10:57:56;;;;;;;2.50;1.13;;;9.80;99.90;;;;;;5051726;28;20100;-46
2023/02/03 11:00:30;;;;;;;3.13;1.30;;;9.80;99.90;;;;;;5051159;28;20450;-44
2023/02/03 11:03:07;;;;;;;2.38;1.10;;;9.80;99.90;;;;;;5051449;28;20021;-46
2023/02/03 11:05:33;;;;;;;2.40;1.10;;;9.90;99.90;;;;;;5049169;28;20040;-49
2023/02/03 11:07:59;;;;;;;1.75;1.00;;;9.90;99.90;;;;;;5048557;28;20029;-48
2023/02/03 11:10:33;;;;;;;2.60;0.77;;;10.00;99.90;;;;;;5050724;28;20029;-47
2023/02/03 11:13:21;;;;;;;2.10;0.80;;;10.00;99.90;;;;;;5049668;28;20132;-46
2023/02/03 11:15:56;;;;;;;2.75;0.75;;;9.90;99.90;;;;;;5069950;28;20040;-47
2023/02/03 11:19:01;;;;;;;1.00;0.98;;;9.90;99.90;;;;;;5070855;28;20029;-47
2023/02/03 11:21:31;;;;;;;0.80;0.70;;;9.90;99.90;;;;;;5033329;28;20048;-48
2023/02/03 11:24:02;;;;;;;4.80;1.33;;;10.00;99.90;;;;;;5071002;28;20082;-47
2023/02/03 11:26:32;;;;;;;2.80;1.20;;;10.00;99.90;;;;;;5075322;28;20071;-48
2023/02/03 11:29:00;;;;;;;1.10;1.02;;;10.00;99.90;;;;;;5057891;28;20032;-47
2023/02/03 11:31:28;;;;;;;5.22;0.82;;;10.00;99.90;;;;;;5055299;28;20059;-45
2023/02/03 11:33:57;;;;;;;1.92;0.80;;;10.00;99.90;;;;;;5055428;28;20050;-47
2023/02/03 11:36:26;;;;;;;5.68;0.88;;;10.10;99.90;;;;;;5054788;28;20025;-46
2023/02/03 11:39:06;;;;;;;2.42;0.95;;;10.10;99.90;;;;;;5054869;28;20025;-46
2023/02/03 11:41:37;;;;;;;1.88;0.77;;;10.10;99.90;;;;;;5054779;28;20025;-47
2023/02/03 11:44:11;;;;;;;2.03;0.77;;;10.20;99.90;;;;;;5054677;28;20060;-45
2023/02/03 11:46:38;;;;;;;2.10;0.80;;;10.20;99.90;;;;;;5037481;28;20108;-46
2023/02/03 11:49:16;;;;;;;4.20;1.13;;;10.20;99.90;;;;;;5054938;28;20041;-45
2023/02/03 11:51:58;;;;;;;6.53;1.27;;;10.20;99.90;;;;;;5062958;22;20120;-51
2023/02/03 11:54:59;;;;;;;3.20;0.90;;;10.20;99.90;;;;;;5034585;28;20029;-49
2023/02/03 11:58:05;;;;;;;4.72;0.68;;;10.30;99.90;;;;;;5034161;28;20041;-51
2023/02/03 12:00:42;;;;;;;;;;;10.30;99.90;;;;;;5032738;28;20122;-51
2023/02/03 12:03:21;;;;;;;;;;;10.30;99.90;;;;;;5015401;28;20427;-50
2023/02/03 12:06:02;;;;;;;0.77;0.60;;;10.30;99.90;;;;;;5015966;28;19960;-51
2023/02/03 12:08:43;;;;;;;1.45;0.68;;;10.30;99.90;;;;;;5014849;28;20029;-53
2023/02/03 12:11:30;;;;;;;1.85;1.52;;;10.30;99.90;;;;;;5014784;28;20080;-53
2023/02/03 12:14:15;;;;;;;0.63;0.50;;;10.30;99.90;;;;;;5024158;28;20025;-52
2023/02/03 12:17:02;;;;;;;2.72;0.80;;;10.30;99.90;;;;;;5034632;28;20025;-53
2023/02/03 12:19:59;;;;;;;1.70;0.77;;;10.30;99.90;;;;;;5034452;28;20057;-53
2023/02/03 12:22:29;;;;;;;2.65;0.57;;;10.30;99.90;;;;;;5034103;28;20025;-52
2023/02/03 12:25:20;;;;;;;2.22;1.20;;;10.20;99.90;;;;;;5034224;28;20033;-48
2023/02/03 12:28:04;;;;;;;1.00;0.70;;;10.20;99.90;;;;;;5034289;28;20021;-52
2023/02/03 12:30:37;;;;;;;2.63;1.15;;;10.20;99.90;;;;;;5034033;28;20029;-53
2023/02/03 12:33:15;;;;;;;1.92;0.80;;;10.30;99.90;;;;;;5033887;28;20025;-50
2023/02/03 12:36:21;;;;;;;1.63;0.85;;;10.30;99.90;;;;;;5034189;28;20583;-48
2023/02/03 12:38:56;;;;;;;1.10;1.00;;;10.30;99.90;;;;;;5027149;28;20026;-50
2023/02/03 12:41:30;;;;;;;1.48;0.80;;;10.30;99.90;;;;;;5014339;28;20028;-53
2023/02/03 12:44:03;;;;;;;1.70;0.70;;;10.40;99.90;;;;;;5014095;28;20109;-52
2023/02/03 12:46:36;;;;;;;3.53;1.00;;;10.40;99.90;;;;;;4994966;28;20164;-49
2023/02/03 12:49:25;;;;;;;2.47;0.65;;;10.30;99.90;;;;;;4995446;28;20041;-52
2023/02/03 12:51:57;;;;;;;1.20;1.00;;;10.30;99.90;;;;;;5021241;28;20037;-52
2023/02/03 12:54:31;;;;;;;3.22;0.70;;;10.40;99.90;;;;;;5033675;28;20025;-51
2023/02/03 12:57:09;;;;;;;1.30;0.63;;;10.40;99.90;;;;;;5033741;28;20096;-50
2023/02/03 12:59:38;;;;;;;3.70;0.80;;;10.30;99.90;;;;;;5033713;28;20017;-51
2023/02/03 13:02:18;;;;;;;1.95;0.77;;;10.30;99.90;;;;;;5033687;28;20025;-50
2023/02/03 13:04:56;;;;;;;1.52;0.80;;;10.20;99.90;;;;;;5033757;28;20388;-51
2023/02/03 13:07:25;;;;;;;1.80;0.70;;;10.30;99.90;;;;;;5033611;28;20032;-54
2023/02/03 13:10:05;;;;;;;1.08;0.80;;;10.30;99.90;;;;;;5033217;28;20258;-51
2023/02/03 13:12:40;;;;;;;1.25;0.85;;;10.20;99.90;;;;;;5032964;28;20426;-54
2023/02/03 13:15:21;;;;;;;2.25;0.82;;;10.20;99.90;;;;;;5036184;28;20052;-52
2023/02/03 13:17:55;;;;;;;2.05;0.50;;;10.20;99.90;;;;;;5017948;28;20034;-55